createdAt,value
2018-05-27T00:00:10.285Z,17.56
2018-05-27T00:01:10.354Z,17.51
2018-05-27T00:02:10.342Z,17.51
2018-05-27T00:03:25.013Z,17.58
2018-05-27T00:04:10.401Z,17.55
2018-05-27T00:05:10.401Z,17.38
2018-05-27T00:06:10.426Z,17.38
2018-05-27T00:07:10.480Z,17.44
2018-05-27T00:08:10.232Z,17.38
2018-05-27T00:09:10.535Z,17.43
2018-05-27T00:10:10.264Z,17.33
2018-05-27T00:11:10.576Z,17.3
2018-05-27T00:12:10.584Z,17.31
2018-05-27T00:13:10.348Z,17.3
2018-05-27T00:14:10.628Z,17.26
2018-05-27T00:15:10.409Z,17.22
2018-05-27T00:17:10.750Z,17.25
2018-05-27T00:18:10.733Z,17.16
2018-05-27T00:19:25.406Z,17.18
2018-05-27T00:20:10.793Z,17.16
2018-05-27T00:21:10.788Z,17.15
2018-05-27T00:23:10.859Z,17.04
2018-05-27T00:24:10.875Z,17.15
2018-05-27T00:25:10.893Z,17.08
2018-05-27T00:26:11.009Z,17
2018-05-27T00:27:10.961Z,16.93
2018-05-27T00:28:10.948Z,16.93
2018-05-27T00:29:10.745Z,16.91
2018-05-27T00:30:25.402Z,17.01
2018-05-27T00:31:11.055Z,16.96
2018-05-27T00:32:11.048Z,16.93
2018-05-27T00:33:11.111Z,16.96
2018-05-27T00:34:10.850Z,16.91
2018-05-27T00:35:25.797Z,16.88
2018-05-27T00:36:10.888Z,16.91
2018-05-27T00:37:11.009Z,16.91
2018-05-27T00:38:11.217Z,16.81
2018-05-27T00:39:11.230Z,16.83
2018-05-27T00:40:11.277Z,16.85
2018-05-27T00:41:11.001Z,16.86
2018-05-27T00:42:25.967Z,16.93
2018-05-27T00:43:11.309Z,16.93
2018-05-27T00:44:11.350Z,16.93
2018-05-27T00:45:11.372Z,16.94
2018-05-27T00:46:11.152Z,16.88
2018-05-27T00:47:11.436Z,16.88
2018-05-27T00:49:11.478Z,16.81
2018-05-27T00:50:26.137Z,16.86
2018-05-27T00:51:11.517Z,16.79
2018-05-27T00:52:11.525Z,16.79
2018-05-27T00:53:11.579Z,16.81
2018-05-27T00:54:11.598Z,16.81
2018-05-27T00:55:11.615Z,16.81
2018-05-27T00:56:11.377Z,16.79
2018-05-27T00:58:26.327Z,16.82
2018-05-27T00:59:11.723Z,16.81
2018-05-27T01:00:11.455Z,16.71
2018-05-27T01:01:11.743Z,16.67
2018-05-27T01:02:11.788Z,16.7
2018-05-27T01:03:11.801Z,16.67
2018-05-27T01:04:11.841Z,16.7
2018-05-27T01:05:11.836Z,16.64
2018-05-27T01:06:11.892Z,16.6
2018-05-27T01:08:11.662Z,16.56
2018-05-27T01:09:11.929Z,16.52
2018-05-27T01:10:11.718Z,16.53
2018-05-27T01:11:11.477Z,16.56
2018-05-27T01:12:12.016Z,16.56
2018-05-27T01:13:26.682Z,16.5
2018-05-27T01:14:26.706Z,16.48
2018-05-27T01:15:12.092Z,16.49
2018-05-27T01:16:12.102Z,16.49
2018-05-27T01:18:12.224Z,16.48
2018-05-27T01:19:12.164Z,16.42
2018-05-27T01:20:12.216Z,16.5
2018-05-27T01:21:12.216Z,16.48
2018-05-27T01:23:12.024Z,16.5
2018-05-27T01:24:12.041Z,16.5
2018-05-27T01:25:12.052Z,16.45
2018-05-27T01:26:12.359Z,16.39
2018-05-27T01:27:12.361Z,16.39
2018-05-27T01:28:12.513Z,16.46
2018-05-27T01:29:12.139Z,16.45
2018-05-27T01:30:12.191Z,16.41
2018-05-27T01:31:12.447Z,16.42
2018-05-27T01:32:26.876Z,16.43
2018-05-27T01:33:27.178Z,16.38
2018-05-27T01:34:12.520Z,16.42
2018-05-27T01:35:12.573Z,16.42
2018-05-27T01:36:12.563Z,16.39
2018-05-27T01:37:12.355Z,16.49
2018-05-27T01:38:27.275Z,16.41
2018-05-27T01:39:12.667Z,16.39
2018-05-27T01:40:12.659Z,16.46
2018-05-27T01:41:12.708Z,16.45
2018-05-27T01:42:12.711Z,16.49
2018-05-27T01:43:12.495Z,16.41
2018-05-27T01:44:12.763Z,16.3
2018-05-27T01:45:12.543Z,16.41
2018-05-27T01:46:12.554Z,16.41
2018-05-27T01:47:12.854Z,16.34
2018-05-27T01:48:12.846Z,16.33
2018-05-27T01:49:12.888Z,16.28
2018-05-27T01:50:12.648Z,16.33
2018-05-27T01:51:12.947Z,16.3
2018-05-27T01:52:12.685Z,16.31
2018-05-27T01:53:12.735Z,16.2
2018-05-27T01:54:27.390Z,16.2
2018-05-27T01:55:13.040Z,16.23
2018-05-27T01:56:13.059Z,16.2
2018-05-27T01:57:13.080Z,16.17
2018-05-27T01:58:13.094Z,16.14
2018-05-27T01:59:13.102Z,16.12
2018-05-27T02:00:13.165Z,16.09
2018-05-27T02:01:13.156Z,16
2018-05-27T02:02:13.206Z,16.01
2018-05-27T02:03:13.218Z,16
2018-05-27T02:04:13.251Z,15.97
2018-05-27T02:05:27.646Z,15.97
2018-05-27T02:06:13.275Z,16.08
2018-05-27T02:07:13.316Z,16
2018-05-27T02:08:13.083Z,15.89
2018-05-27T02:09:13.369Z,15.92
2018-05-27T02:10:28.022Z,15.92
2018-05-27T02:11:13.419Z,15.84
2018-05-27T02:12:13.409Z,15.97
2018-05-27T02:13:13.463Z,15.87
2018-05-27T02:14:13.202Z,15.93
2018-05-27T02:15:13.511Z,15.84
2018-05-27T02:16:13.531Z,15.83
2018-05-27T02:17:28.189Z,15.84
2018-05-27T02:18:13.567Z,15.83
2018-05-27T02:19:13.339Z,15.9
2018-05-27T02:20:13.603Z,15.89
2018-05-27T02:22:13.386Z,15.83
2018-05-27T02:23:13.670Z,15.87
2018-05-27T02:24:13.711Z,15.83
2018-05-27T02:25:28.377Z,15.74
2018-05-27T02:26:13.777Z,15.74
2018-05-27T02:27:13.784Z,15.75
2018-05-27T02:28:28.460Z,15.67
2018-05-27T02:30:13.837Z,15.76
2018-05-27T02:31:13.919Z,15.74
2018-05-27T02:32:13.633Z,15.76
2018-05-27T02:33:13.661Z,15.74
2018-05-27T02:34:14.002Z,15.65
2018-05-27T02:35:13.946Z,15.74
2018-05-27T02:36:28.647Z,15.68
2018-05-27T02:37:13.736Z,15.65
2018-05-27T02:38:14.035Z,15.56
2018-05-27T02:39:13.787Z,15.57
2018-05-27T02:40:13.837Z,15.57
2018-05-27T02:41:14.111Z,15.57
2018-05-27T02:43:14.152Z,15.57
2018-05-27T02:44:14.155Z,15.51
2018-05-27T02:45:14.209Z,15.5
2018-05-27T02:46:14.213Z,15.49
2018-05-27T02:47:14.252Z,15.39
2018-05-27T02:48:14.282Z,15.54
2018-05-27T02:49:28.931Z,15.49
2018-05-27T02:50:14.328Z,15.51
2018-05-27T02:51:28.994Z,15.39
2018-05-27T02:52:28.740Z,15.44
2018-05-27T02:54:14.398Z,15.5
2018-05-27T02:56:14.458Z,15.49
2018-05-27T02:57:29.126Z,15.47
2018-05-27T02:58:14.519Z,15.43
2018-05-27T03:00:14.562Z,15.44
2018-05-27T03:01:14.546Z,15.46
2018-05-27T03:02:14.579Z,15.41
2018-05-27T03:03:14.608Z,15.39
2018-05-27T03:05:29.335Z,15.36
2018-05-27T03:06:29.066Z,15.34
2018-05-27T03:07:14.723Z,15.36
2018-05-27T03:08:14.709Z,15.36
2018-05-27T03:09:14.758Z,15.31
2018-05-27T03:10:14.773Z,15.29
2018-05-27T03:11:14.796Z,15.27
2018-05-27T03:12:14.835Z,15.32
2018-05-27T03:14:14.886Z,15.31
2018-05-27T03:16:14.932Z,15.41
2018-05-27T03:17:14.915Z,15.39
2018-05-27T03:18:14.707Z,15.43
2018-05-27T03:19:29.624Z,15.44
2018-05-27T03:20:15.018Z,15.43
2018-05-27T03:21:15.025Z,15.44
2018-05-27T03:22:15.060Z,15.47
2018-05-27T03:23:15.087Z,15.6
2018-05-27T03:24:14.825Z,15.54
2018-05-27T03:25:14.849Z,15.56
2018-05-27T03:26:14.604Z,15.59
2018-05-27T03:27:15.176Z,15.59
2018-05-27T03:29:29.875Z,15.68
2018-05-27T03:30:15.222Z,15.71
2018-05-27T03:31:15.264Z,15.71
2018-05-27T03:32:15.293Z,15.71
2018-05-27T03:33:15.314Z,15.8
2018-05-27T03:34:15.311Z,15.82
2018-05-27T03:35:15.095Z,15.86
2018-05-27T03:36:15.354Z,15.84
2018-05-27T03:37:15.409Z,15.8
2018-05-27T03:38:30.061Z,15.82
2018-05-27T03:39:30.102Z,15.86
2018-05-27T03:40:15.480Z,15.87
2018-05-27T03:41:15.471Z,15.86
2018-05-27T03:42:15.509Z,15.9
2018-05-27T03:43:15.553Z,15.9
2018-05-27T03:44:15.538Z,15.87
2018-05-27T03:45:30.240Z,15.87
2018-05-27T03:46:15.588Z,15.94
2018-05-27T03:47:15.625Z,15.87
2018-05-27T03:48:15.382Z,15.96
2018-05-27T03:49:15.422Z,15.9
2018-05-27T03:50:15.710Z,15.96
2018-05-27T03:51:15.703Z,15.94
2018-05-27T03:52:15.488Z,16.01
2018-05-27T03:53:15.750Z,15.96
2018-05-27T03:54:15.802Z,15.96
2018-05-27T03:55:15.794Z,16.12
2018-05-27T03:56:15.861Z,16.05
2018-05-27T03:57:15.853Z,16.07
2018-05-27T03:58:15.899Z,16.11
2018-05-27T03:59:15.629Z,16.09
2018-05-27T04:00:30.571Z,16.2
2018-05-27T04:01:15.966Z,16.24
2018-05-27T04:03:16.012Z,16.33
2018-05-27T04:04:16.025Z,16.31
2018-05-27T04:05:16.058Z,16.38
2018-05-27T04:06:16.051Z,16.41
2018-05-27T04:07:30.735Z,16.5
2018-05-27T04:08:16.130Z,16.58
2018-05-27T04:09:30.882Z,16.56
2018-05-27T04:10:16.282Z,16.7
2018-05-27T04:11:15.913Z,16.91
2018-05-27T04:12:15.951Z,17.12
2018-05-27T04:14:16.273Z,17.18
2018-05-27T04:15:16.267Z,17.23
2018-05-27T04:16:16.316Z,17.22
2018-05-27T04:17:16.313Z,17.26
2018-05-27T04:18:16.352Z,17.26
2018-05-27T04:19:16.359Z,17.26
2018-05-27T04:20:16.150Z,17.31
2018-05-27T04:21:16.177Z,17.25
2018-05-27T04:22:16.436Z,17.25
2018-05-27T04:23:16.468Z,17.22
2018-05-27T04:24:16.220Z,17.23
2018-05-27T04:25:16.539Z,17.04
2018-05-27T04:26:16.533Z,16.98
2018-05-27T04:27:16.584Z,16.98
2018-05-27T04:28:16.324Z,17.03
2018-05-27T04:29:16.628Z,17.03
2018-05-27T04:30:16.633Z,17.06
2018-05-27T04:31:16.650Z,17.08
2018-05-27T04:32:31.348Z,17.16
2018-05-27T04:33:16.701Z,17.25
2018-05-27T04:34:16.750Z,17.31
2018-05-27T04:35:16.481Z,17.74
2018-05-27T04:37:16.533Z,19.18
2018-05-27T04:38:16.868Z,19.66
2018-05-27T04:39:16.856Z,19.81
2018-05-27T04:40:16.348Z,20.32
2018-05-27T04:41:16.629Z,20.8
2018-05-27T04:42:16.676Z,21.22
2018-05-27T04:43:31.345Z,21.28
2018-05-27T04:44:16.995Z,21.49
2018-05-27T04:45:16.989Z,21.61
2018-05-27T04:46:17.053Z,20.97
2018-05-27T04:47:16.783Z,21.22
2018-05-27T04:49:17.120Z,22.02
2018-05-27T04:50:16.880Z,22.02
2018-05-27T04:51:17.180Z,22.09
2018-05-27T04:52:17.175Z,22.25
2018-05-27T04:53:17.229Z,22.05
2018-05-27T04:54:17.232Z,22.09
2018-05-27T04:55:17.301Z,21.68
2018-05-27T04:56:17.041Z,21.64
2018-05-27T04:57:17.346Z,21.28
2018-05-27T04:58:17.365Z,21.49
2018-05-27T04:59:32.054Z,21.52
2018-05-27T05:00:17.135Z,21.42
2018-05-27T05:01:17.426Z,21.56
2018-05-27T05:02:17.477Z,21.5
2018-05-27T05:03:17.497Z,22.09
2018-05-27T05:05:17.562Z,22.51
2018-05-27T05:06:32.236Z,23.02
2018-05-27T05:07:17.627Z,23.54
2018-05-27T05:08:17.660Z,24.34
2018-05-27T05:09:17.663Z,25.03
2018-05-27T05:10:17.710Z,24.43
2018-05-27T05:11:17.715Z,23.83
2018-05-27T05:12:17.513Z,24
2018-05-27T05:13:17.530Z,24.47
2018-05-27T05:14:17.834Z,24.8
2018-05-27T05:15:17.844Z,25.1
2018-05-27T05:16:17.955Z,25.23
2018-05-27T05:17:17.639Z,25.18
2018-05-27T05:18:17.947Z,24.93
2018-05-27T05:19:17.988Z,24.5
2018-05-27T05:20:32.651Z,24.61
2018-05-27T05:21:18.018Z,24.88
2018-05-27T05:22:18.215Z,24.81
2018-05-27T05:23:17.831Z,24.6
2018-05-27T05:24:18.207Z,24.68
2018-05-27T05:25:18.149Z,24.96
2018-05-27T05:26:18.204Z,24.35
2018-05-27T05:27:17.948Z,24.4
2018-05-27T05:28:18.250Z,24.4
2018-05-27T05:29:18.268Z,24.67
2018-05-27T05:30:18.069Z,24.99
2018-05-27T05:31:18.339Z,25.38
2018-05-27T05:32:18.115Z,25.35
2018-05-27T05:33:18.422Z,25.45
2018-05-27T05:34:18.454Z,25.36
2018-05-27T05:35:33.121Z,25.8
2018-05-27T05:36:18.558Z,26.05
2018-05-27T05:38:18.572Z,26.09
2018-05-27T05:39:18.327Z,26.35
2018-05-27T05:41:18.693Z,26.94
2018-05-27T05:42:33.344Z,26.97
2018-05-27T05:43:18.475Z,26.39
2018-05-27T05:44:18.750Z,26.01
2018-05-27T05:45:18.549Z,25.82
2018-05-27T05:46:18.811Z,26.47
2018-05-27T05:47:18.610Z,26.55
2018-05-27T05:48:18.892Z,26.95
2018-05-27T05:49:19.099Z,27.5
2018-05-27T05:50:18.952Z,26.8
2018-05-27T05:51:18.719Z,27.04
2018-05-27T05:52:18.769Z,27.63
2018-05-27T05:54:19.107Z,28.41
2018-05-27T05:55:19.109Z,28.81
2018-05-27T05:56:19.180Z,28.14
2018-05-27T05:57:33.840Z,28.55
2018-05-27T05:58:19.244Z,29.21
2018-05-27T05:59:19.247Z,29.57
2018-05-27T06:00:19.296Z,29.08
2018-05-27T06:01:19.450Z,29
2018-05-27T06:02:19.374Z,29.06
2018-05-27T06:03:19.383Z,29.12
2018-05-27T06:04:19.446Z,29.48
2018-05-27T06:05:19.446Z,29.86
2018-05-27T06:06:19.509Z,30.8
2018-05-27T06:07:34.178Z,31.44
2018-05-27T06:08:19.550Z,31.02
2018-05-27T06:09:19.593Z,30.26
2018-05-27T06:10:19.649Z,30.07
2018-05-27T06:11:19.682Z,30.42
2018-05-27T06:12:19.690Z,31.1
2018-05-27T06:13:19.469Z,31.38
2018-05-27T06:14:34.419Z,31.78
2018-05-27T06:15:19.560Z,31.41
2018-05-27T06:16:19.566Z,31.23
2018-05-27T06:17:19.892Z,31.44
2018-05-27T06:18:19.910Z,31.65
2018-05-27T06:19:19.969Z,31.26
2018-05-27T06:20:19.972Z,30.61
2018-05-27T06:21:19.746Z,30.54
2018-05-27T06:22:20.051Z,29.94
2018-05-27T06:23:34.752Z,29.58
2018-05-27T06:24:20.125Z,29.98
2018-05-27T06:25:34.559Z,31.07
2018-05-27T06:26:19.923Z,31.43
2018-05-27T06:27:20.244Z,31.46
2018-05-27T06:28:20.284Z,31.7
2018-05-27T06:29:20.300Z,31.88
2018-05-27T06:30:20.330Z,31.38
2018-05-27T06:31:35.019Z,31.61
2018-05-27T06:32:20.421Z,32.28
2018-05-27T06:33:20.435Z,32.15
2018-05-27T06:34:20.497Z,32.21
2018-05-27T06:35:20.514Z,32.55
2018-05-27T06:36:20.567Z,33.01
2018-05-27T06:37:20.572Z,33.03
2018-05-27T06:38:20.346Z,33.01
2018-05-27T06:39:35.328Z,32.26
2018-05-27T06:40:20.675Z,31.84
2018-05-27T06:41:20.745Z,31.48
2018-05-27T06:42:20.767Z,31.48
2018-05-27T06:43:20.805Z,30.35
2018-05-27T06:44:20.819Z,30.79
2018-05-27T06:45:20.858Z,30.94
2018-05-27T06:46:20.930Z,31.68
2018-05-27T06:47:20.939Z,32.14
2018-05-27T06:48:20.743Z,32.48
2018-05-27T06:49:21.007Z,32.22
2018-05-27T06:50:21.072Z,31.88
2018-05-27T06:51:21.292Z,31.48
2018-05-27T06:52:21.144Z,31.29
2018-05-27T06:53:21.167Z,31.51
2018-05-27T06:54:20.937Z,31.62
2018-05-27T06:55:35.886Z,31.93
2018-05-27T06:56:21.339Z,32.35
2018-05-27T06:57:21.299Z,32.75
2018-05-27T06:58:21.363Z,33.18
2018-05-27T06:59:21.383Z,33.63
2018-05-27T07:00:21.438Z,33.76
2018-05-27T07:01:21.453Z,33.29
2018-05-27T07:02:21.362Z,33.15
2018-05-27T07:03:21.280Z,33.14
2018-05-27T07:04:21.318Z,32.87
2018-05-27T07:05:21.619Z,31.95
2018-05-27T07:06:21.368Z,32.25
2018-05-27T07:07:21.691Z,31.76
2018-05-27T07:08:21.698Z,32.22
2018-05-27T07:09:21.766Z,32.75
2018-05-27T07:10:36.437Z,33.59
2018-05-27T07:11:21.579Z,34.17
2018-05-27T07:12:21.894Z,34.35
2018-05-27T07:13:21.888Z,34.42
2018-05-27T07:14:21.933Z,34.61
2018-05-27T07:15:21.963Z,33.91
2018-05-27T07:16:21.767Z,33.78
2018-05-27T07:17:22.043Z,33.84
2018-05-27T07:18:22.083Z,33.59
2018-05-27T07:19:22.135Z,33.49
2018-05-27T07:20:21.887Z,33.57
2018-05-27T07:21:36.860Z,33.59
2018-05-27T07:22:22.245Z,33.63
2018-05-27T07:23:22.275Z,34.12
2018-05-27T07:24:22.289Z,34.54
2018-05-27T07:25:22.332Z,34.87
2018-05-27T07:26:22.395Z,35.38
2018-05-27T07:27:22.410Z,35.6
2018-05-27T07:28:22.210Z,34.1
2018-05-27T07:29:22.492Z,32.65
2018-05-27T07:30:22.532Z,32.65
2018-05-27T07:31:22.555Z,32.7
2018-05-27T07:32:22.682Z,33.38
2018-05-27T07:33:22.652Z,33.95
2018-05-27T07:34:22.410Z,34.17
2018-05-27T07:35:22.731Z,34.97
2018-05-27T07:36:22.741Z,35.18
2018-05-27T07:37:22.808Z,35.34
2018-05-27T07:38:22.820Z,35.52
2018-05-27T07:39:22.854Z,35.04
2018-05-27T07:40:22.917Z,34.99
2018-05-27T07:41:23.005Z,35.14
2018-05-27T07:42:37.642Z,35.38
2018-05-27T07:43:23.003Z,35.23
2018-05-27T07:44:23.068Z,34.31
2018-05-27T07:45:22.832Z,34.77
2018-05-27T07:46:23.114Z,35.19
2018-05-27T07:47:22.917Z,35.03
2018-05-27T07:48:23.187Z,34.47
2018-05-27T07:49:23.242Z,32.35
2018-05-27T07:50:23.275Z,32.37
2018-05-27T07:51:22.803Z,32.88
2018-05-27T07:52:23.371Z,33.38
2018-05-27T07:53:23.114Z,33.6
2018-05-27T07:54:23.443Z,34.08
2018-05-27T07:55:23.449Z,34.31
2018-05-27T07:56:23.503Z,34.69
2018-05-27T07:57:23.263Z,35.07
2018-05-27T07:58:38.241Z,35.66
2018-05-27T07:59:23.628Z,36.05
2018-05-27T08:00:23.635Z,36.51
2018-05-27T08:01:23.424Z,36.53
2018-05-27T08:02:23.711Z,36.23
2018-05-27T08:03:23.777Z,36.31
2018-05-27T08:04:23.793Z,36.2
2018-05-27T08:05:23.594Z,36.22
2018-05-27T08:06:23.861Z,35.66
2018-05-27T08:07:23.950Z,35.74
2018-05-27T08:08:23.933Z,35.65
2018-05-27T08:09:23.731Z,35.66
2018-05-27T08:10:23.754Z,36.27
2018-05-27T08:12:23.824Z,36.29
2018-05-27T08:13:23.891Z,35.71
2018-05-27T08:14:38.825Z,35.28
2018-05-27T08:15:24.232Z,35.77
2018-05-27T08:16:24.239Z,35.72
2018-05-27T08:17:24.402Z,36.16
2018-05-27T08:18:24.308Z,36.16
2018-05-27T08:19:39.015Z,36.15
2018-05-27T08:20:24.416Z,36.09
2018-05-27T08:21:39.086Z,35.72
2018-05-27T08:22:24.490Z,35.66
2018-05-27T08:23:24.516Z,35.38
2018-05-27T08:24:24.565Z,35.5
2018-05-27T08:25:24.568Z,35.6
2018-05-27T08:26:24.619Z,35.56
2018-05-27T08:27:24.656Z,35.92
2018-05-27T08:28:24.711Z,35.96
2018-05-27T08:29:24.747Z,35.81
2018-05-27T08:30:39.417Z,36.6
2018-05-27T08:31:24.818Z,36.71
2018-05-27T08:32:24.833Z,36.93
2018-05-27T08:33:24.895Z,37.21
2018-05-27T08:34:24.647Z,37.49
2018-05-27T08:35:24.977Z,37.36
2018-05-27T08:36:25.006Z,37.15
2018-05-27T08:37:25.018Z,36.87
2018-05-27T08:38:25.068Z,37.2
2018-05-27T08:39:25.126Z,37.18
2018-05-27T08:40:24.865Z,36.99
2018-05-27T08:41:24.932Z,36.95
2018-05-27T08:42:25.196Z,37.1
2018-05-27T08:43:25.004Z,37.31
2018-05-27T08:44:25.016Z,37.15
2018-05-27T08:45:39.990Z,37.17
2018-05-27T08:46:25.376Z,37.21
2018-05-27T08:47:25.392Z,36.59
2018-05-27T08:49:25.466Z,35.68
2018-05-27T08:50:25.534Z,35.58
2018-05-27T08:51:25.293Z,35.58
2018-05-27T08:52:25.596Z,35.62
2018-05-27T08:53:25.753Z,36.08
2018-05-27T08:54:25.653Z,36.13
2018-05-27T08:55:25.699Z,36.01
2018-05-27T08:56:40.394Z,36.27
2018-05-27T08:57:25.577Z,36.75
2018-05-27T08:58:25.561Z,37.15
2018-05-27T08:59:25.822Z,37.24
2018-05-27T09:00:25.865Z,36.95
2018-05-27T09:01:26.243Z,36.65
2018-05-27T09:02:25.963Z,36.64
2018-05-27T09:03:26.000Z,36.83
2018-05-27T09:04:26.011Z,36.46
2018-05-27T09:05:26.056Z,36.49
2018-05-27T09:06:26.106Z,36.35
2018-05-27T09:07:25.595Z,36.56
2018-05-27T09:08:26.183Z,36.94
2018-05-27T09:09:26.189Z,36.72
2018-05-27T09:10:26.225Z,36.01
2018-05-27T09:11:26.296Z,35.9
2018-05-27T09:12:26.298Z,35.55
2018-05-27T09:13:26.362Z,34.64
2018-05-27T09:14:26.369Z,33.91
2018-05-27T09:15:41.116Z,33
2018-05-27T09:16:26.436Z,32.85
2018-05-27T09:17:41.135Z,33.44
2018-05-27T09:18:26.549Z,33.61
2018-05-27T09:19:26.542Z,34.19
2018-05-27T09:20:26.609Z,34.44
2018-05-27T09:22:26.405Z,34.82
2018-05-27T09:23:26.688Z,34.75
2018-05-27T09:24:26.561Z,34.94
2018-05-27T09:25:26.832Z,35.09
2018-05-27T09:26:26.548Z,34.97
2018-05-27T09:27:26.856Z,35.48
2018-05-27T09:28:26.606Z,35.8
2018-05-27T09:29:26.926Z,36.01
2018-05-27T09:30:26.950Z,35.9
2018-05-27T09:32:27.058Z,36.54
2018-05-27T09:33:41.457Z,36.62
2018-05-27T09:34:26.818Z,36.41
2018-05-27T09:35:26.882Z,36.59
2018-05-27T09:36:27.153Z,36.75
2018-05-27T09:37:27.216Z,36.85
2018-05-27T09:38:27.213Z,37.12
2018-05-27T09:39:27.022Z,37.15
2018-05-27T09:41:27.321Z,36.91
2018-05-27T09:42:27.389Z,36.68
2018-05-27T09:43:27.396Z,36.59
2018-05-27T09:44:27.459Z,36.54
2018-05-27T09:45:27.772Z,36.13
2018-05-27T09:46:27.527Z,36.19
2018-05-27T09:47:27.537Z,36.25
2018-05-27T09:48:27.573Z,36.38
2018-05-27T09:49:42.286Z,36.54
2018-05-27T09:51:27.822Z,36.98
2018-05-27T09:52:27.462Z,37.07
2018-05-27T09:53:27.760Z,37.32
2018-05-27T09:54:27.806Z,37.86
2018-05-27T09:55:27.825Z,37.49
2018-05-27T09:56:27.879Z,37.63
2018-05-27T09:57:27.628Z,37.13
2018-05-27T09:58:27.953Z,36.68
2018-05-27T10:00:27.758Z,36.8
2018-05-27T10:01:28.022Z,36.59
2018-05-27T10:02:28.086Z,36.73
2018-05-27T10:03:28.117Z,36.65
2018-05-27T10:04:27.873Z,36.81
2018-05-27T10:05:42.825Z,36.16
2018-05-27T10:06:28.229Z,35.9
2018-05-27T10:07:28.237Z,36.03
2018-05-27T10:08:28.304Z,36.28
2018-05-27T10:09:28.323Z,36.5
2018-05-27T10:10:28.368Z,36.38
2018-05-27T10:11:28.370Z,36.28
2018-05-27T10:12:43.098Z,36.15
2018-05-27T10:13:28.202Z,36.39
2018-05-27T10:14:28.493Z,36.81
2018-05-27T10:15:28.587Z,36.93
2018-05-27T10:16:28.556Z,35.71
2018-05-27T10:17:28.608Z,34.97
2018-05-27T10:18:28.612Z,34.97
2018-05-27T10:19:28.679Z,35.36
2018-05-27T10:20:43.445Z,35.31
2018-05-27T10:21:28.749Z,34.78
2018-05-27T10:22:28.775Z,34.58
2018-05-27T10:23:28.808Z,34.78
2018-05-27T10:24:28.564Z,34.85
2018-05-27T10:25:28.596Z,34.64
2018-05-27T10:26:28.657Z,34.17
2018-05-27T10:27:28.670Z,34.44
2018-05-27T10:28:28.972Z,34.5
2018-05-27T10:29:28.759Z,34.39
2018-05-27T10:30:29.025Z,34.43
2018-05-27T10:31:29.090Z,33.94
2018-05-27T10:32:43.815Z,33.63
2018-05-27T10:33:29.146Z,33.57
2018-05-27T10:34:28.905Z,33.66
2018-05-27T10:35:29.201Z,33.94
2018-05-27T10:36:29.258Z,33.19
2018-05-27T10:37:29.281Z,32.72
2018-05-27T10:38:29.334Z,33.03
2018-05-27T10:39:29.072Z,33.42
2018-05-27T10:40:29.129Z,33.31
2018-05-27T10:42:29.181Z,32.72
2018-05-27T10:43:29.598Z,32.23
2018-05-27T10:44:29.243Z,32.07
2018-05-27T10:45:29.537Z,32.22
2018-05-27T10:46:29.588Z,32.33
2018-05-27T10:47:29.681Z,32.3
2018-05-27T10:48:29.666Z,32.1
2018-05-27T10:49:29.711Z,31.95
2018-05-27T10:50:29.463Z,31.21
2018-05-27T10:51:29.479Z,30.94
2018-05-27T10:52:44.449Z,31.17
2018-05-27T10:53:29.801Z,31.48
2018-05-27T10:54:29.603Z,32.1
2018-05-27T10:55:29.872Z,32.38
2018-05-27T10:56:29.936Z,32.33
2018-05-27T10:58:29.735Z,31.46
2018-05-27T10:59:29.759Z,31.23
2018-05-27T11:00:30.058Z,31.04
2018-05-27T11:01:30.065Z,31.23
2018-05-27T11:02:30.126Z,31.07
2018-05-27T11:03:30.134Z,30.99
2018-05-27T11:04:29.668Z,30.94
2018-05-27T11:05:30.209Z,31.32
2018-05-27T11:06:29.731Z,31.16
2018-05-27T11:07:29.999Z,31.16
2018-05-27T11:08:44.954Z,31.54
2018-05-27T11:09:30.100Z,31.53
2018-05-27T11:10:30.377Z,31.5
2018-05-27T11:11:30.436Z,31.43
2018-05-27T11:12:30.432Z,31.57
2018-05-27T11:13:30.484Z,31.62
2018-05-27T11:14:30.231Z,31.5
2018-05-27T11:15:30.522Z,31.35
2018-05-27T11:16:30.580Z,31.28
2018-05-27T11:17:30.601Z,31.56
2018-05-27T11:18:30.646Z,31.46
2018-05-27T11:19:30.489Z,31.56
2018-05-27T11:20:30.705Z,31.81
2018-05-27T11:21:30.736Z,31.93
2018-05-27T11:22:30.770Z,32.1
2018-05-27T11:23:30.817Z,32.19
2018-05-27T11:24:45.469Z,31.95
2018-05-27T11:25:30.840Z,31.75
2018-05-27T11:26:30.900Z,31.28
2018-05-27T11:27:30.916Z,31.09
2018-05-27T11:29:30.977Z,31.04
2018-05-27T11:31:31.036Z,31.26
2018-05-27T11:32:30.544Z,31.53
2018-05-27T11:33:30.865Z,31.7
2018-05-27T11:34:31.149Z,31.99
2018-05-27T11:35:31.267Z,32.03
2018-05-27T11:36:30.927Z,32.15
2018-05-27T11:37:31.001Z,32.4
2018-05-27T11:38:30.994Z,32.47
2018-05-27T11:39:31.286Z,32.82
2018-05-27T11:40:45.989Z,32.45
2018-05-27T11:41:31.373Z,31.93
2018-05-27T11:42:46.115Z,31.39
2018-05-27T11:43:31.413Z,31.07
2018-05-27T11:44:31.476Z,30.83
2018-05-27T11:45:31.476Z,30.79
2018-05-27T11:46:31.262Z,30.86
2018-05-27T11:47:31.552Z,31.06
2018-05-27T11:48:31.610Z,31.26
2018-05-27T11:49:31.339Z,31.44
2018-05-27T11:50:31.659Z,31.47
2018-05-27T11:51:31.684Z,31.46
2018-05-27T11:52:46.372Z,31.53
2018-05-27T11:54:31.772Z,31.86
2018-05-27T11:55:46.191Z,32.01
2018-05-27T11:56:31.820Z,32.04
2018-05-27T11:57:31.879Z,32.4
2018-05-27T11:58:31.886Z,32.51
2018-05-27T11:59:31.949Z,32.38
2018-05-27T12:00:31.971Z,32.22
2018-05-27T12:02:32.033Z,32.51
2018-05-27T12:03:46.701Z,32.67
2018-05-27T12:04:32.097Z,32.81
2018-05-27T12:05:32.101Z,32.93
2018-05-27T12:06:31.901Z,33
2018-05-27T12:07:32.196Z,32.92
2018-05-27T12:08:32.200Z,33.09
2018-05-27T12:09:32.764Z,33.29
2018-05-27T12:10:32.262Z,33.28
2018-05-27T12:11:32.322Z,33.01
2018-05-27T12:12:32.324Z,33.03
2018-05-27T12:13:32.382Z,33.16
2018-05-27T12:15:32.427Z,33.16
2018-05-27T12:16:32.468Z,33.12
2018-05-27T12:17:47.165Z,33.14
2018-05-27T12:18:32.515Z,32.89
2018-05-27T12:19:32.574Z,32.44
2018-05-27T12:20:32.575Z,32.32
2018-05-27T12:21:32.623Z,32.29
2018-05-27T12:22:32.645Z,32.32
2018-05-27T12:23:32.703Z,32.4
2018-05-27T12:24:32.468Z,32.14
2018-05-27T12:26:32.775Z,32.14
2018-05-27T12:27:47.199Z,31.89
2018-05-27T12:28:32.859Z,31.78
2018-05-27T12:29:32.603Z,31.47
2018-05-27T12:30:32.654Z,31.46
2018-05-27T12:31:32.939Z,31.17
2018-05-27T12:32:47.617Z,30.26
2018-05-27T12:33:47.666Z,29.85
2018-05-27T12:34:33.046Z,29.6
2018-05-27T12:35:33.046Z,29.43
2018-05-27T12:36:32.837Z,28.96
2018-05-27T12:37:32.843Z,28.54
2018-05-27T12:38:47.815Z,27.81
2018-05-27T12:39:33.176Z,27.43
2018-05-27T12:40:33.226Z,26.91
2018-05-27T12:41:33.252Z,26.37
2018-05-27T12:42:33.276Z,26.06
2018-05-27T12:43:47.690Z,25.65
2018-05-27T12:44:33.346Z,25.47
2018-05-27T12:45:33.347Z,25.23
2018-05-27T12:46:33.406Z,24.99
2018-05-27T12:47:33.505Z,24.67
2018-05-27T12:48:33.455Z,24.2
2018-05-27T12:49:33.472Z,24
2018-05-27T12:50:33.259Z,24.05
2018-05-27T12:51:33.545Z,24.15
2018-05-27T12:52:33.568Z,24.35
2018-05-27T12:53:33.587Z,24.37
2018-05-27T12:54:33.605Z,24.39
2018-05-27T12:55:33.661Z,24.4
2018-05-27T12:56:33.665Z,24.4
2018-05-27T12:57:33.723Z,24.46
2018-05-27T12:58:33.772Z,24.43
2018-05-27T12:59:48.165Z,24.64
2018-05-27T13:00:33.825Z,24.61
2018-05-27T13:01:33.907Z,24.45
2018-05-27T13:02:33.868Z,24.35
2018-05-27T13:03:33.345Z,24.39
2018-05-27T13:04:33.923Z,24.42
2018-05-27T13:05:33.947Z,24.34
2018-05-27T13:06:34.141Z,24.55
2018-05-27T13:07:48.637Z,24.81
2018-05-27T13:08:33.752Z,24.93
2018-05-27T13:09:48.713Z,25.17
2018-05-27T13:10:34.064Z,25.17
2018-05-27T13:11:33.853Z,25.28
2018-05-27T13:12:34.138Z,25.32
2018-05-27T13:13:34.157Z,25.58
2018-05-27T13:14:33.681Z,25.58
2018-05-27T13:15:48.621Z,25.65
2018-05-27T13:17:33.764Z,26.02
2018-05-27T13:18:34.034Z,26.25
2018-05-27T13:20:34.348Z,26.17
2018-05-27T13:21:34.413Z,26.01
2018-05-27T13:23:34.435Z,26.05
2018-05-27T13:24:34.493Z,26.05
2018-05-27T13:25:34.234Z,26.01
2018-05-27T13:26:34.552Z,25.95
2018-05-27T13:27:34.557Z,25.92
2018-05-27T13:28:34.349Z,25.92
2018-05-27T13:29:34.637Z,26.07
2018-05-27T13:30:49.311Z,26.47
2018-05-27T13:31:34.694Z,26.47
2018-05-27T13:32:34.794Z,26.52
2018-05-27T13:33:34.765Z,26.63
2018-05-27T13:34:34.761Z,26.57
2018-05-27T13:35:34.552Z,26.73
2018-05-27T13:36:34.831Z,26.91
2018-05-27T13:37:34.875Z,26.8
2018-05-27T13:38:34.355Z,26.62